Morgantown Municipal Walter L. Bill Hart Field
KMGW : now visible

Airfield :











YOU CAN JOIN US ON...

 
LOGIN :

Register | Disclaimer

   EN    FR    IT 

 









Legend :    VFR   Marginal VFR   IFR   Intensive IFR   Very Intensive IFR
Visi :
Ceiling :
>= 8 km
>= 3000ft
5 to 8 km
1000 to 3000 ft
1500m to 5 km
500 to 1000 ft
800 to 1500m
200 to 500 ft
< 800m
< 200 ft
Symbols :   Thunderstorms  Fog  Heavy snow  Heavy precipitations  Wind > 20 kt






- Airport Elevation : 1248 ft
- IATA code : MGW


KMGW - Morgantown Municipal Walter L. Bill Hart Field

CURRENT METAR :
  • 152253Z 21004KT 10SM SCT012 BKN032 OVC100 03/01 A2971 RMK AO2 RAE44 SLP067 P0000 T00280006

EXPIRED METARs :
  • 152222Z 21003KT 10SM -RA SCT014 OVC034 03/01 A2969 RMK AO2 P0000 T00280011
  • 152207Z 20003KT 10SM -RA SCT008 BKN015 OVC042 03/01 A2969 RMK AO2 P0000 T00280011
  • 152153Z VRB03KT 10SM -RA BKN008 OVC015 02/01 A2969 RMK AO2 SLP061 P0003 T00220011
  • 152115Z 21005KT 7SM -RA BR BKN009 OVC013 03/01 A2968 RMK AO2 P0002 T00280011
  • 152053Z VRB04KT 7SM -RA BR BKN010 OVC019 03/01 A2966 RMK AO2 SLP051 P0004 60007 T00330011 51026
  • 152008Z VRB05KT 5SM -RA BR OVC014 03/01 A2965 RMK AO2 P0002 T00330011
  • 152000Z 24004KT 4SM -RA BR OVC016 03/01 A2964 RMK AO2 P0001 T00330011

TAF KMGW
Valid from the 15 at 18:00 until the 16 at 18:00 UTC


151726Z 1518/1618 20010G18KT 5SM -RA OVC010
FM152200 22008KT 2SM -SN OVC008
FM160100 21006KT P6SM BKN025
FM160600 20005KT P6SM BKN060
KZOB FIR / North America



MET'MAP, your aeronautical weather chart ! - Copyright ORBIFLY December 2007 - Disclaimer

ORBIFLY MET'MAP TEAM :

Programming & Development : Alexandra Zaïnal
Concept & original design : Baudouin d'Aumeries
Assistance for programming : Marc-Olivier Méhu
Technical & hardware support : Manuel Goepfert

Contact : metmap@orbifly.com




SOURCES & CREDITS :

   NOAA       Earth
Advisory